createdAt,value
2023-04-25T00:01:16.264Z,17.10
2023-04-25T00:03:45.433Z,17.10
2023-04-25T00:06:16.515Z,17.10
2023-04-25T00:08:45.907Z,17.20
2023-04-25T00:11:14.868Z,17.20
2023-04-25T00:13:43.882Z,17.10
2023-04-25T00:16:14.629Z,17.10
2023-04-25T00:18:47.361Z,17.20
2023-04-25T00:21:19.222Z,17.10
2023-04-25T00:23:48.769Z,17.20
2023-04-25T00:26:18.140Z,17.40
2023-04-25T00:28:47.176Z,17.50
2023-04-25T00:31:16.263Z,17.40
2023-04-25T00:33:45.313Z,17.40
2023-04-25T00:36:14.182Z,17.30
2023-04-25T00:38:45.193Z,17.20
2023-04-25T00:41:14.583Z,17.30
2023-04-25T00:43:43.992Z,17.20
2023-04-25T00:46:13.800Z,17.30
2023-04-25T00:48:42.867Z,17.20
2023-04-25T00:51:16.586Z,17.00
2023-04-25T00:53:48.412Z,17.00
2023-04-25T00:56:18.829Z,17.00
2023-04-25T00:58:48.220Z,17.00
2023-04-25T01:01:18.170Z,16.90
2023-04-25T01:04:12.504Z,16.90
2023-04-25T01:06:42.230Z,17.10
2023-04-25T01:09:12.556Z,16.90
2023-04-25T01:11:41.966Z,16.80
2023-04-25T01:14:10.910Z,17.00
2023-04-25T01:16:40.237Z,17.00
2023-04-25T01:19:13.648Z,17.00
2023-04-25T01:21:44.073Z,16.80
2023-04-25T01:24:13.889Z,16.80
2023-04-25T01:26:50.856Z,16.70
2023-04-25T01:29:25.859Z,16.80
2023-04-25T01:31:56.365Z,16.90
2023-04-25T01:34:25.418Z,16.80
2023-04-25T01:36:56.563Z,16.80
2023-04-25T01:39:26.530Z,16.80
2023-04-25T01:41:57.294Z,16.80
2023-04-25T01:44:27.227Z,16.70
2023-04-25T01:46:57.145Z,16.80
2023-04-25T01:49:26.766Z,16.70
2023-04-25T01:51:57.225Z,16.70
2023-04-25T01:54:26.621Z,16.70
2023-04-25T01:56:56.019Z,16.70
2023-04-25T01:59:25.223Z,16.70
2023-04-25T02:02:18.581Z,16.80
2023-04-25T02:04:47.824Z,16.70
2023-04-25T02:07:18.610Z,16.60
2023-04-25T02:09:52.692Z,16.60
2023-04-25T02:12:23.015Z,16.60
2023-04-25T02:15:16.569Z,16.60
2023-04-25T02:17:55.068Z,16.60
2023-04-25T02:20:25.678Z,16.60
2023-04-25T02:22:56.146Z,16.90
2023-04-25T02:25:25.584Z,16.80
2023-04-25T02:27:55.158Z,17.10
2023-04-25T02:30:24.233Z,16.90
2023-04-25T02:32:53.257Z,16.80
2023-04-25T02:35:22.563Z,16.80
2023-04-25T02:37:51.644Z,16.80
2023-04-25T02:40:22.170Z,16.80
2023-04-25T02:42:51.878Z,16.80
2023-04-25T02:45:21.655Z,16.80
2023-04-25T02:47:50.827Z,17.10
2023-04-25T02:50:22.090Z,17.10
2023-04-25T02:52:51.033Z,16.90
2023-04-25T02:55:28.519Z,16.80
2023-04-25T02:57:59.347Z,16.90
2023-04-25T03:00:45.181Z,16.90
2023-04-25T03:03:14.588Z,16.70
2023-04-25T03:05:43.843Z,16.70
2023-04-25T03:08:13.141Z,16.70
2023-04-25T03:10:43.789Z,16.60
2023-04-25T03:13:13.592Z,16.60
2023-04-25T03:15:44.721Z,16.60
2023-04-25T03:18:14.145Z,16.60
2023-04-25T03:20:44.067Z,16.60
2023-04-25T03:23:13.040Z,16.60
2023-04-25T03:25:46.115Z,16.60
2023-04-25T03:28:15.445Z,16.60
2023-04-25T03:30:44.443Z,16.60
2023-04-25T03:33:13.716Z,16.60
2023-04-25T03:35:43.752Z,16.70
2023-04-25T03:38:13.541Z,16.60
2023-04-25T03:40:43.399Z,16.60
2023-04-25T03:43:27.092Z,16.60
2023-04-25T03:46:04.719Z,16.60
2023-04-25T03:48:33.749Z,16.90
2023-04-25T03:51:02.786Z,17.00
2023-04-25T03:53:33.944Z,16.80
2023-04-25T03:56:18.677Z,16.90
2023-04-25T03:58:51.400Z,17.00
2023-04-25T04:01:47.639Z,17.00
2023-04-25T04:04:17.398Z,16.80
2023-04-25T04:06:47.064Z,16.90
2023-04-25T04:09:28.811Z,16.90
2023-04-25T04:11:59.528Z,17.00
2023-04-25T04:14:31.199Z,16.90
2023-04-25T04:17:00.544Z,16.80
2023-04-25T04:19:31.016Z,16.80
2023-04-25T04:22:12.706Z,17.00
2023-04-25T04:24:45.111Z,16.90
2023-04-25T04:27:16.672Z,17.00
2023-04-25T04:30:11.146Z,16.80
2023-04-25T04:32:50.868Z,16.60
2023-04-25T04:35:20.624Z,16.60
2023-04-25T04:37:49.514Z,16.50
2023-04-25T04:40:21.777Z,16.60
2023-04-25T04:42:59.116Z,16.50
2023-04-25T04:45:48.845Z,16.40
2023-04-25T04:48:26.906Z,16.50
2023-04-25T04:51:14.659Z,16.50
2023-04-25T04:54:09.734Z,16.50
2023-04-25T04:56:47.845Z,16.50
2023-04-25T04:59:19.729Z,16.60
2023-04-25T05:02:11.969Z,16.50
2023-04-25T05:04:55.597Z,16.50
2023-04-25T05:07:54.012Z,16.50
2023-04-25T05:10:46.313Z,16.50
2023-04-25T05:13:34.759Z,16.60
2023-04-25T05:16:17.832Z,16.50
2023-04-25T05:19:02.280Z,16.50
2023-04-25T05:21:47.902Z,16.50
2023-04-25T05:24:40.452Z,16.70
2023-04-25T05:27:28.764Z,16.60
2023-04-25T05:30:27.235Z,16.70
2023-04-25T05:33:25.767Z,16.90
2023-04-25T05:35:56.329Z,16.90
2023-04-25T05:38:27.163Z,16.90
2023-04-25T05:41:15.339Z,16.80
2023-04-25T05:43:51.029Z,16.90
2023-04-25T05:46:38.617Z,16.70
2023-04-25T05:49:23.626Z,16.60
2023-04-25T05:52:02.866Z,16.70
2023-04-25T05:54:58.361Z,16.70
2023-04-25T05:57:29.300Z,16.70
2023-04-25T05:59:59.465Z,16.80
2023-04-25T06:02:42.539Z,16.80
2023-04-25T06:05:14.510Z,16.90
2023-04-25T06:07:45.802Z,16.90
2023-04-25T06:10:14.920Z,17.10
2023-04-25T06:12:45.508Z,17.10
2023-04-25T06:15:27.909Z,17.20
2023-04-25T06:17:58.454Z,17.30
2023-04-25T06:20:27.609Z,17.20
2023-04-25T06:23:01.014Z,17.30
2023-04-25T06:25:57.062Z,17.30
2023-04-25T06:28:27.093Z,17.30
2023-04-25T06:30:56.113Z,17.30
2023-04-25T06:33:25.583Z,17.30
2023-04-25T06:35:56.746Z,17.40
2023-04-25T06:38:30.585Z,17.50
2023-04-25T06:41:00.292Z,17.60
2023-04-25T06:43:34.716Z,17.70
2023-04-25T06:46:22.249Z,17.60
2023-04-25T06:48:52.878Z,17.60
2023-04-25T06:51:24.333Z,17.50
2023-04-25T06:53:57.742Z,17.60
2023-04-25T06:56:40.562Z,17.70
2023-04-25T06:59:17.329Z,17.80
2023-04-25T07:01:48.627Z,18.00
2023-04-25T07:04:21.257Z,18.10
2023-04-25T07:06:57.536Z,18.20
2023-04-25T07:09:36.223Z,18.10
2023-04-25T07:12:05.874Z,18.20
2023-04-25T07:14:36.319Z,18.10
2023-04-25T07:17:07.877Z,18.30
2023-04-25T07:19:39.226Z,18.50
2023-04-25T07:22:08.977Z,18.60
2023-04-25T07:24:42.577Z,18.50
2023-04-25T07:27:15.580Z,18.40
2023-04-25T07:30:14.823Z,18.30
2023-04-25T07:32:44.138Z,18.10
2023-04-25T07:35:13.590Z,18.50
2023-04-25T07:37:43.367Z,18.60
2023-04-25T07:40:19.959Z,18.40
2023-04-25T07:42:53.101Z,18.50
2023-04-25T07:45:31.967Z,18.60
2023-04-25T07:48:01.455Z,18.90
2023-04-25T07:50:32.746Z,18.80
2023-04-25T07:53:01.797Z,18.70
2023-04-25T07:55:41.306Z,18.90
2023-04-25T07:58:16.523Z,19.00
2023-04-25T08:00:48.463Z,18.90
2023-04-25T08:03:32.327Z,18.80
2023-04-25T08:06:05.694Z,19.00
2023-04-25T08:08:43.165Z,19.10
2023-04-25T08:11:17.269Z,19.50
2023-04-25T08:13:46.403Z,19.50
2023-04-25T08:16:15.770Z,19.60
2023-04-25T08:18:45.080Z,19.60
2023-04-25T08:21:15.565Z,19.30
2023-04-25T08:23:44.695Z,19.40
2023-04-25T08:26:27.101Z,19.20
2023-04-25T08:28:56.883Z,19.30
2023-04-25T08:31:26.454Z,19.30
2023-04-25T08:34:00.750Z,19.70
2023-04-25T08:36:39.707Z,19.90
2023-04-25T08:39:30.078Z,20.10
2023-04-25T08:42:25.799Z,19.70
2023-04-25T08:44:56.684Z,19.60
2023-04-25T08:47:32.893Z,19.70
2023-04-25T08:50:04.496Z,19.60
2023-04-25T08:52:38.656Z,19.70
2023-04-25T08:55:12.073Z,19.90
2023-04-25T08:57:45.187Z,19.60
2023-04-25T09:00:15.664Z,19.60
2023-04-25T09:02:46.953Z,19.90
2023-04-25T09:05:17.031Z,19.60
2023-04-25T09:07:49.198Z,19.80
2023-04-25T09:10:20.764Z,20.10
2023-04-25T09:13:07.137Z,20.10
2023-04-25T09:15:53.597Z,20.10
2023-04-25T09:18:48.363Z,20.40
2023-04-25T09:21:18.234Z,20.30
2023-04-25T09:23:53.310Z,20.50
2023-04-25T09:26:24.096Z,20.50
2023-04-25T09:29:08.631Z,20.80
2023-04-25T09:31:41.757Z,20.90
2023-04-25T09:34:17.116Z,21.10
2023-04-25T09:36:53.162Z,21.00
2023-04-25T09:39:43.185Z,21.40
2023-04-25T09:42:17.563Z,21.20
2023-04-25T09:44:49.550Z,21.40
2023-04-25T09:47:19.191Z,21.00
2023-04-25T09:49:48.502Z,21.00
2023-04-25T09:52:19.552Z,21.10
2023-04-25T09:54:58.410Z,21.00
2023-04-25T09:57:33.391Z,21.20
2023-04-25T10:00:10.919Z,21.00
2023-04-25T10:02:48.579Z,20.90
2023-04-25T10:05:47.022Z,21.10
2023-04-25T10:08:17.728Z,21.40
2023-04-25T10:10:48.124Z,21.60
2023-04-25T10:13:17.612Z,21.70
2023-04-25T10:15:49.895Z,21.70
2023-04-25T10:18:21.038Z,21.70
2023-04-25T10:20:50.695Z,21.70
2023-04-25T10:23:21.085Z,21.60
2023-04-25T10:25:52.137Z,22.00
2023-04-25T10:28:22.026Z,21.90
2023-04-25T10:31:04.082Z,21.70
2023-04-25T10:33:36.544Z,21.80
2023-04-25T10:36:14.055Z,22.30
2023-04-25T10:38:45.118Z,22.30
2023-04-25T10:41:15.268Z,22.30
2023-04-25T10:43:45.572Z,22.20
2023-04-25T10:46:25.037Z,22.40
2023-04-25T10:48:55.534Z,22.40
2023-04-25T10:51:26.505Z,22.30
2023-04-25T10:54:03.618Z,22.70
2023-04-25T10:56:34.374Z,23.00
2023-04-25T10:59:10.713Z,23.00
2023-04-25T11:21:34.117Z,22.70
2023-04-25T11:24:03.996Z,23.30
2023-04-25T11:26:33.204Z,23.60
2023-04-25T11:29:02.945Z,23.50
2023-04-25T11:31:32.335Z,23.60
2023-04-25T11:34:03.873Z,23.30
2023-04-25T11:36:33.473Z,22.70
2023-04-25T11:39:03.033Z,22.50
2023-04-25T11:41:33.351Z,22.20
2023-04-25T11:44:02.344Z,22.20
2023-04-25T11:46:31.486Z,22.50
2023-04-25T11:49:00.784Z,22.50
2023-04-25T11:51:31.482Z,22.20
2023-04-25T11:54:00.678Z,22.40
2023-04-25T11:56:29.855Z,22.30
2023-04-25T11:59:00.722Z,22.60
2023-04-25T12:01:44.741Z,22.00
2023-04-25T12:04:15.532Z,22.40
2023-04-25T12:06:49.152Z,22.50
2023-04-25T12:09:20.370Z,22.20
2023-04-25T12:11:50.388Z,22.20
2023-04-25T12:14:28.273Z,22.00
2023-04-25T12:16:59.609Z,22.30
2023-04-25T12:19:34.082Z,22.20
2023-04-25T12:22:05.319Z,21.60
2023-04-25T12:24:39.104Z,21.70
2023-04-25T12:27:10.223Z,21.70
2023-04-25T12:29:49.592Z,21.40
2023-04-25T12:32:20.016Z,21.40
2023-04-25T12:34:49.243Z,21.10
2023-04-25T12:37:20.053Z,20.70
2023-04-25T12:39:49.499Z,21.20
2023-04-25T12:42:18.767Z,21.00
2023-04-25T12:44:48.450Z,21.20
2023-04-25T12:47:17.418Z,21.10
2023-04-25T12:49:46.645Z,20.60
2023-04-25T12:52:15.658Z,20.90
2023-04-25T12:54:46.410Z,21.10
2023-04-25T12:57:15.513Z,21.50
2023-04-25T12:59:44.570Z,21.40
2023-04-25T13:02:13.756Z,21.40
2023-04-25T13:04:43.057Z,21.30
2023-04-25T13:07:12.215Z,21.30
2023-04-25T13:09:41.452Z,21.20
2023-04-25T13:12:12.222Z,21.20
2023-04-25T13:14:41.269Z,21.60
2023-04-25T13:17:10.617Z,21.40
2023-04-25T13:19:40.081Z,21.10
2023-04-25T13:22:09.064Z,21.40
2023-04-25T13:24:38.383Z,21.70
2023-04-25T13:27:07.355Z,21.60
2023-04-25T13:29:39.641Z,21.60
2023-04-25T13:32:08.896Z,21.90
2023-04-25T13:34:37.662Z,21.90
2023-04-25T13:37:07.641Z,21.70
2023-04-25T13:39:36.457Z,21.50
2023-04-25T13:42:06.200Z,21.20
2023-04-25T13:44:35.183Z,21.20
2023-04-25T13:47:06.571Z,21.20
2023-04-25T13:49:35.910Z,21.50
2023-04-25T13:52:05.070Z,21.50
2023-04-25T13:54:34.625Z,21.40
2023-04-25T13:57:03.884Z,21.50
2023-04-25T13:59:33.177Z,22.10
2023-04-25T14:02:02.536Z,22.00
2023-04-25T14:04:34.069Z,21.70
2023-04-25T14:07:03.727Z,22.30
2023-04-25T14:09:33.044Z,22.90
2023-04-25T14:12:03.249Z,23.10
2023-04-25T14:14:32.316Z,23.10
2023-04-25T14:17:01.605Z,23.10
2023-04-25T14:19:31.000Z,22.70
2023-04-25T14:22:01.785Z,22.90
2023-04-25T14:24:30.770Z,23.00
2023-04-25T14:26:59.885Z,23.10
2023-04-25T14:29:31.283Z,23.10
2023-04-25T14:32:01.244Z,22.40
2023-04-25T14:34:30.445Z,22.30
2023-04-25T14:37:01.594Z,22.40
2023-04-25T14:39:30.833Z,22.50
2023-04-25T14:42:00.229Z,22.40
2023-04-25T14:44:29.410Z,22.20
2023-04-25T14:46:59.699Z,22.70
2023-04-25T14:49:29.563Z,22.90
2023-04-25T14:51:59.126Z,23.20
2023-04-25T14:54:29.746Z,23.00
2023-04-25T14:56:59.310Z,23.00
2023-04-25T14:59:29.260Z,22.60
2023-04-25T15:01:59.895Z,22.70
2023-04-25T15:04:29.290Z,22.70
2023-04-25T15:06:58.699Z,23.10
2023-04-25T15:09:29.726Z,22.70
2023-04-25T15:12:00.044Z,21.60
2023-04-25T15:14:29.200Z,21.20
2023-04-25T15:16:58.925Z,20.70
2023-04-25T15:19:29.368Z,20.70
2023-04-25T15:22:01.628Z,20.50
2023-04-25T15:24:32.543Z,20.70
2023-04-25T15:27:01.853Z,20.60
2023-04-25T15:29:31.279Z,20.70
2023-04-25T15:32:00.376Z,20.60
2023-04-25T15:34:29.289Z,20.40
2023-04-25T15:36:58.953Z,20.70
2023-04-25T15:39:28.104Z,20.70
2023-04-25T15:41:59.243Z,20.70
2023-04-25T15:44:28.853Z,20.50
2023-04-25T15:46:57.944Z,20.20
2023-04-25T15:49:27.359Z,20.00
2023-04-25T15:51:56.456Z,20.10
2023-04-25T15:54:25.648Z,20.00
2023-04-25T15:56:54.586Z,20.10
2023-04-25T15:59:25.565Z,19.90
2023-04-25T16:01:54.874Z,20.00
2023-04-25T16:04:25.531Z,20.00
2023-04-25T16:06:54.809Z,20.10
2023-04-25T16:09:23.952Z,20.10
2023-04-25T16:11:53.236Z,20.00
2023-04-25T16:14:22.449Z,20.00
2023-04-25T16:16:53.551Z,20.00
2023-04-25T16:19:23.406Z,19.90
2023-04-25T16:21:52.768Z,19.90
2023-04-25T16:24:22.251Z,20.00
2023-04-25T16:26:54.268Z,19.90
2023-04-25T16:29:23.586Z,19.90
2023-04-25T16:31:54.297Z,20.00
2023-04-25T16:34:23.655Z,19.90
2023-04-25T16:36:54.467Z,19.70
2023-04-25T16:39:25.263Z,19.60
2023-04-25T16:41:54.574Z,19.60
2023-04-25T16:44:23.529Z,19.70
2023-04-25T16:46:53.865Z,19.80
2023-04-25T16:49:23.279Z,19.40
2023-04-25T16:51:52.364Z,19.60
2023-04-25T16:54:21.750Z,19.60
2023-04-25T16:56:51.064Z,19.80
2023-04-25T16:59:20.726Z,19.70
2023-04-25T17:01:50.163Z,19.70
2023-04-25T17:04:21.382Z,19.90
2023-04-25T17:06:50.600Z,19.90
2023-04-25T17:09:19.772Z,19.70
2023-04-25T17:11:50.165Z,19.80
2023-04-25T17:14:19.498Z,19.90
2023-04-25T17:16:49.798Z,19.70
2023-04-25T17:19:22.116Z,19.50
2023-04-25T17:21:51.985Z,19.50
2023-04-25T17:24:22.142Z,19.60
2023-04-25T17:26:51.542Z,19.60
2023-04-25T17:29:21.849Z,19.60
2023-04-25T17:31:51.474Z,19.60
2023-04-25T17:34:22.455Z,19.40
2023-04-25T17:36:51.475Z,19.30
2023-04-25T17:39:21.657Z,19.40
2023-04-25T17:41:50.750Z,19.40
2023-04-25T17:44:20.580Z,19.10
2023-04-25T17:46:49.721Z,19.10
2023-04-25T17:49:18.823Z,19.10
2023-04-25T17:51:49.493Z,19.20
2023-04-25T17:54:18.784Z,19.30
2023-04-25T17:56:48.331Z,19.10
2023-04-25T17:59:17.524Z,19.00
2023-04-25T18:01:48.204Z,18.90
2023-04-25T18:04:17.816Z,18.90
2023-04-25T18:06:48.243Z,18.90
2023-04-25T18:09:17.780Z,19.00
2023-04-25T18:11:48.299Z,18.80
2023-04-25T18:14:17.897Z,18.90
2023-04-25T18:16:47.348Z,19.00
2023-04-25T18:19:21.540Z,18.90
2023-04-25T18:21:54.536Z,18.90
2023-04-25T18:24:27.260Z,18.90
2023-04-25T18:27:00.315Z,18.80
2023-04-25T18:29:33.726Z,18.60
2023-04-25T18:32:05.072Z,18.50
2023-04-25T18:34:34.925Z,18.60
2023-04-25T18:37:05.220Z,18.30
2023-04-25T18:39:34.658Z,18.30
2023-04-25T18:42:06.959Z,18.40
2023-04-25T18:44:40.206Z,18.50
2023-04-25T18:47:10.616Z,18.70
2023-04-25T18:49:39.602Z,18.70
2023-04-25T18:52:12.522Z,18.60
2023-04-25T18:54:42.637Z,18.50
2023-04-25T18:57:14.701Z,18.50
2023-04-25T18:59:45.655Z,18.20
2023-04-25T19:02:16.470Z,18.10
2023-04-25T19:04:47.042Z,18.10
2023-04-25T19:07:17.805Z,18.00
2023-04-25T19:09:47.183Z,18.10
2023-04-25T19:12:16.907Z,18.20
2023-04-25T19:14:46.122Z,18.20
2023-04-25T19:17:15.164Z,18.20
2023-04-25T19:19:44.277Z,18.30
2023-04-25T19:22:14.294Z,18.30
2023-04-25T19:24:44.674Z,17.90
2023-04-25T19:27:14.426Z,17.80
2023-04-25T19:29:48.404Z,17.80
2023-04-25T19:32:18.100Z,17.90
2023-04-25T19:34:48.434Z,18.00
2023-04-25T19:37:17.614Z,18.00
2023-04-25T19:39:48.663Z,18.00
2023-04-25T19:42:19.365Z,18.10
2023-04-25T19:44:48.617Z,18.00
2023-04-25T19:47:17.904Z,17.90
2023-04-25T19:49:47.549Z,17.80
2023-04-25T19:52:17.773Z,17.90
2023-04-25T19:54:48.504Z,17.90
2023-04-25T19:57:17.665Z,17.80
2023-04-25T19:59:48.245Z,17.70
2023-04-25T20:02:18.738Z,17.70
2023-04-25T20:04:47.810Z,17.70
2023-04-25T20:07:16.904Z,17.60
2023-04-25T20:09:45.785Z,17.80
2023-04-25T20:12:16.473Z,17.80
2023-04-25T20:14:45.821Z,17.80
2023-04-25T20:17:15.283Z,17.80
2023-04-25T20:19:44.377Z,17.80
2023-04-25T20:22:13.358Z,17.90
2023-04-25T20:24:42.681Z,17.80
2023-04-25T20:27:11.749Z,17.80
2023-04-25T20:29:42.839Z,17.90
2023-04-25T20:32:12.655Z,18.00
2023-04-25T20:34:42.321Z,18.00
2023-04-25T20:37:11.431Z,18.10
2023-04-25T20:39:40.349Z,18.10
2023-04-25T20:42:09.602Z,18.00
2023-04-25T20:44:40.876Z,17.90
2023-04-25T20:47:11.994Z,17.80
2023-04-25T20:49:40.906Z,17.90
2023-04-25T20:52:09.818Z,18.00
2023-04-25T20:54:39.081Z,17.90
2023-04-25T20:57:07.927Z,18.00
2023-04-25T20:59:37.517Z,17.80
2023-04-25T21:02:06.354Z,17.80
2023-04-25T21:04:36.702Z,17.70
2023-04-25T21:07:06.131Z,17.60
2023-04-25T21:09:35.043Z,17.60
2023-04-25T21:12:04.504Z,17.70
2023-04-25T21:14:34.277Z,17.70
2023-04-25T21:17:04.455Z,17.80
2023-04-25T21:19:34.212Z,17.80
2023-04-25T21:22:04.570Z,17.90
2023-04-25T21:24:34.899Z,17.80
2023-04-25T21:27:03.820Z,17.60
2023-04-25T21:29:33.160Z,17.50
2023-04-25T21:32:02.559Z,17.60
2023-04-25T21:34:32.142Z,17.60
2023-04-25T21:37:01.282Z,17.60
2023-04-25T21:39:31.755Z,17.70
2023-04-25T21:42:01.982Z,17.60
2023-04-25T21:44:31.334Z,17.60
2023-04-25T21:47:00.548Z,17.60
2023-04-25T21:49:29.964Z,17.60
2023-04-25T21:51:59.053Z,17.60
2023-04-25T21:54:28.193Z,17.60
2023-04-25T21:56:58.627Z,17.50
2023-04-25T21:59:27.614Z,17.50
2023-04-25T22:01:56.665Z,17.50
2023-04-25T22:04:25.839Z,17.40
2023-04-25T22:06:55.317Z,17.40
2023-04-25T22:09:24.681Z,17.40
2023-04-25T22:11:54.724Z,17.60
2023-04-25T22:14:26.858Z,17.60
2023-04-25T22:16:56.100Z,17.50
2023-04-25T22:19:25.031Z,17.60
2023-04-25T22:21:54.018Z,17.60
2023-04-25T22:24:23.004Z,17.50
2023-04-25T22:26:52.552Z,17.70
2023-04-25T22:29:22.087Z,17.70
2023-04-25T22:31:53.206Z,17.60
2023-04-25T22:34:22.512Z,17.70
2023-04-25T22:36:51.480Z,17.60
2023-04-25T22:39:20.610Z,17.80
2023-04-25T22:41:49.765Z,17.70
2023-04-25T22:44:18.859Z,17.80
2023-04-25T22:46:47.816Z,17.70
2023-04-25T22:49:18.734Z,17.40
2023-04-25T22:51:49.156Z,17.40
2023-04-25T22:54:18.444Z,17.50
2023-04-25T22:56:47.451Z,17.40
2023-04-25T22:59:16.355Z,17.40
2023-04-25T23:01:45.665Z,17.60
2023-04-25T23:04:16.851Z,17.50
2023-04-25T23:06:47.925Z,17.70
2023-04-25T23:09:17.426Z,17.90
2023-04-25T23:11:47.071Z,18.00
2023-04-25T23:14:16.495Z,18.00
2023-04-25T23:16:45.848Z,18.00
2023-04-25T23:19:14.996Z,18.00
2023-04-25T23:21:44.121Z,18.00
2023-04-25T23:24:14.977Z,18.10
2023-04-25T23:26:44.317Z,18.00
2023-04-25T23:29:13.105Z,18.00
2023-04-25T23:31:42.323Z,18.00
2023-04-25T23:34:11.381Z,18.00
2023-04-25T23:36:40.562Z,18.00
2023-04-25T23:39:10.701Z,18.10
2023-04-25T23:41:41.492Z,18.10
2023-04-25T23:44:10.951Z,18.10
2023-04-25T23:46:40.162Z,18.10
2023-04-25T23:49:09.968Z,18.10
2023-04-25T23:51:38.716Z,18.00
2023-04-25T23:54:08.456Z,18.00
2023-04-25T23:56:37.425Z,18.10
2023-04-25T23:59:09.137Z,17.80
